<?xml version="1.0" encoding="UTF-8" standalone="no" ?>
<gpx xmlns="http://www.topografix.com/GPX/1/1" xmlns:xsi="http://www.w3.org/2001/XMLSchema-instance" xsi:schemaLocation="http://www.topografix.com/GPX/1/1 http://www.topografix.com/GPX/1/1/gpx.xsd" version="1.1" creator="VisuGPX - https://www.visugpx.com">
  <metadata>
    <name>13760062-la Chapelle Largeau</name>
  </metadata>
  <trk>
    <name><![CDATA[13760062-la Chapelle Largeau]]></name>
    <trkseg>
      <trkpt lat="46.94599" lon="-0.83727">
        <ele>170</ele>
        <time>2021-09-29T11:19:54Z</time>
      </trkpt>
      <trkpt lat="46.94709" lon="-0.83683">
        <ele>166</ele>
        <time>2021-09-29T11:22:26Z</time>
      </trkpt>
      <trkpt lat="46.94759" lon="-0.83657">
        <ele>165</ele>
        <time>2021-09-29T11:23:37Z</time>
      </trkpt>
      <trkpt lat="46.94794" lon="-0.83545">
        <ele>156</ele>
        <time>2021-09-29T11:25:29Z</time>
      </trkpt>
      <trkpt lat="46.94751" lon="-0.83512">
        <ele>154</ele>
        <time>2021-09-29T11:26:34Z</time>
      </trkpt>
      <trkpt lat="46.94744" lon="-0.8348">
        <ele>151</ele>
        <time>2021-09-29T11:27:05Z</time>
      </trkpt>
      <trkpt lat="46.94755" lon="-0.83448">
        <ele>148</ele>
        <time>2021-09-29T11:27:37Z</time>
      </trkpt>
      <trkpt lat="46.94773" lon="-0.83418">
        <ele>143</ele>
        <time>2021-09-29T11:28:14Z</time>
      </trkpt>
      <trkpt lat="46.94792" lon="-0.83403">
        <ele>142</ele>
        <time>2021-09-29T11:28:42Z</time>
      </trkpt>
      <trkpt lat="46.94875" lon="-0.83418">
        <ele>137</ele>
        <time>2021-09-29T11:30:34Z</time>
      </trkpt>
      <trkpt lat="46.9491" lon="-0.8345">
        <ele>137</ele>
        <time>2021-09-29T11:31:29Z</time>
      </trkpt>
      <trkpt lat="46.9497" lon="-0.83457">
        <ele>135</ele>
        <time>2021-09-29T11:32:49Z</time>
      </trkpt>
      <trkpt lat="46.94993" lon="-0.83506">
        <ele>135</ele>
        <time>2021-09-29T11:33:44Z</time>
      </trkpt>
      <trkpt lat="46.94993" lon="-0.83557">
        <ele>136</ele>
        <time>2021-09-29T11:34:30Z</time>
      </trkpt>
      <trkpt lat="46.95126" lon="-0.83448">
        <ele>131</ele>
        <time>2021-09-29T11:37:53Z</time>
      </trkpt>
      <trkpt lat="46.95194" lon="-0.83403">
        <ele>129</ele>
        <time>2021-09-29T11:39:33Z</time>
      </trkpt>
      <trkpt lat="46.95306" lon="-0.83369">
        <ele>126</ele>
        <time>2021-09-29T11:42:06Z</time>
      </trkpt>
      <trkpt lat="46.9538" lon="-0.83342">
        <ele>124</ele>
        <time>2021-09-29T11:43:47Z</time>
      </trkpt>
      <trkpt lat="46.95438" lon="-0.83269">
        <ele>123</ele>
        <time>2021-09-29T11:45:29Z</time>
      </trkpt>
      <trkpt lat="46.95472" lon="-0.83199">
        <ele>121</ele>
        <time>2021-09-29T11:46:48Z</time>
      </trkpt>
      <trkpt lat="46.95507" lon="-0.83102">
        <ele>120</ele>
        <time>2021-09-29T11:48:28Z</time>
      </trkpt>
      <trkpt lat="46.95525" lon="-0.83032">
        <ele>119</ele>
        <time>2021-09-29T11:49:36Z</time>
      </trkpt>
      <trkpt lat="46.95583" lon="-0.82926">
        <ele>115</ele>
        <time>2021-09-29T11:51:39Z</time>
      </trkpt>
      <trkpt lat="46.95635" lon="-0.82993">
        <ele>116</ele>
        <time>2021-09-29T11:53:12Z</time>
      </trkpt>
      <trkpt lat="46.95687" lon="-0.83041">
        <ele>116</ele>
        <time>2021-09-29T11:54:34Z</time>
      </trkpt>
      <trkpt lat="46.9573" lon="-0.83075">
        <ele>116</ele>
        <time>2021-09-29T11:55:39Z</time>
      </trkpt>
      <trkpt lat="46.95742" lon="-0.83044">
        <ele>116</ele>
        <time>2021-09-29T11:56:12Z</time>
      </trkpt>
      <trkpt lat="46.95708" lon="-0.82996">
        <ele>115</ele>
        <time>2021-09-29T11:57:15Z</time>
      </trkpt>
      <trkpt lat="46.95706" lon="-0.82923">
        <ele>115</ele>
        <time>2021-09-29T11:58:21Z</time>
      </trkpt>
      <trkpt lat="46.95776" lon="-0.82829">
        <ele>118</ele>
        <time>2021-09-29T12:00:28Z</time>
      </trkpt>
      <trkpt lat="46.95784" lon="-0.82805">
        <ele>120</ele>
        <time>2021-09-29T12:00:52Z</time>
      </trkpt>
      <trkpt lat="46.95764" lon="-0.82738">
        <ele>122</ele>
        <time>2021-09-29T12:01:59Z</time>
      </trkpt>
      <trkpt lat="46.95726" lon="-0.82698">
        <ele>120</ele>
        <time>2021-09-29T12:03:01Z</time>
      </trkpt>
      <trkpt lat="46.95699" lon="-0.82614">
        <ele>121</ele>
        <time>2021-09-29T12:04:26Z</time>
      </trkpt>
      <trkpt lat="46.9566" lon="-0.82538">
        <ele>120</ele>
        <time>2021-09-29T12:05:52Z</time>
      </trkpt>
      <trkpt lat="46.95633" lon="-0.82495">
        <ele>121</ele>
        <time>2021-09-29T12:06:46Z</time>
      </trkpt>
      <trkpt lat="46.95596" lon="-0.8241">
        <ele>122</ele>
        <time>2021-09-29T12:08:17Z</time>
      </trkpt>
      <trkpt lat="46.95577" lon="-0.82374">
        <ele>122</ele>
        <time>2021-09-29T12:08:59Z</time>
      </trkpt>
      <trkpt lat="46.95546" lon="-0.8235">
        <ele>121</ele>
        <time>2021-09-29T12:09:46Z</time>
      </trkpt>
      <trkpt lat="46.95513" lon="-0.82301">
        <ele>120</ele>
        <time>2021-09-29T12:10:48Z</time>
      </trkpt>
      <trkpt lat="46.95463" lon="-0.82193">
        <ele>120</ele>
        <time>2021-09-29T12:12:47Z</time>
      </trkpt>
      <trkpt lat="46.95391" lon="-0.81979">
        <ele>119</ele>
        <time>2021-09-29T12:16:25Z</time>
      </trkpt>
      <trkpt lat="46.95337" lon="-0.8204">
        <ele>117</ele>
        <time>2021-09-29T12:17:56Z</time>
      </trkpt>
      <trkpt lat="46.95298" lon="-0.82113">
        <ele>117</ele>
        <time>2021-09-29T12:19:20Z</time>
      </trkpt>
      <trkpt lat="46.95269" lon="-0.82149">
        <ele>117</ele>
        <time>2021-09-29T12:20:11Z</time>
      </trkpt>
      <trkpt lat="46.95221" lon="-0.82167">
        <ele>117</ele>
        <time>2021-09-29T12:21:17Z</time>
      </trkpt>
      <trkpt lat="46.95113" lon="-0.82283">
        <ele>121</ele>
        <time>2021-09-29T12:24:16Z</time>
      </trkpt>
      <trkpt lat="46.95037" lon="-0.8234">
        <ele>123</ele>
        <time>2021-09-29T12:26:09Z</time>
      </trkpt>
      <trkpt lat="46.94755" lon="-0.82504">
        <ele>132</ele>
        <time>2021-09-29T12:32:54Z</time>
      </trkpt>
      <trkpt lat="46.94757" lon="-0.82425">
        <ele>132</ele>
        <time>2021-09-29T12:34:06Z</time>
      </trkpt>
      <trkpt lat="46.94732" lon="-0.82304">
        <ele>131</ele>
        <time>2021-09-29T12:36:02Z</time>
      </trkpt>
      <trkpt lat="46.94715" lon="-0.82219">
        <ele>130</ele>
        <time>2021-09-29T12:37:22Z</time>
      </trkpt>
      <trkpt lat="46.94688" lon="-0.81715">
        <ele>138</ele>
        <time>2021-09-29T12:45:03Z</time>
      </trkpt>
      <trkpt lat="46.94635" lon="-0.81752">
        <ele>139</ele>
        <time>2021-09-29T12:46:21Z</time>
      </trkpt>
      <trkpt lat="46.94596" lon="-0.81758">
        <ele>139</ele>
        <time>2021-09-29T12:47:13Z</time>
      </trkpt>
      <trkpt lat="46.94496" lon="-0.81843">
        <ele>140</ele>
        <time>2021-09-29T12:49:48Z</time>
      </trkpt>
      <trkpt lat="46.94419" lon="-0.81882">
        <ele>145</ele>
        <time>2021-09-29T12:51:36Z</time>
      </trkpt>
      <trkpt lat="46.94363" lon="-0.81931">
        <ele>156</ele>
        <time>2021-09-29T12:53:04Z</time>
      </trkpt>
      <trkpt lat="46.94313" lon="-0.81929">
        <ele>164</ele>
        <time>2021-09-29T12:54:10Z</time>
      </trkpt>
      <trkpt lat="46.9425" lon="-0.81917">
        <ele>167</ele>
        <time>2021-09-29T12:55:35Z</time>
      </trkpt>
      <trkpt lat="46.94209" lon="-0.8196">
        <ele>170</ele>
        <time>2021-09-29T12:56:42Z</time>
      </trkpt>
      <trkpt lat="46.94187" lon="-0.81976">
        <ele>172</ele>
        <time>2021-09-29T12:57:15Z</time>
      </trkpt>
      <trkpt lat="46.94115" lon="-0.82013">
        <ele>178</ele>
        <time>2021-09-29T12:58:57Z</time>
      </trkpt>
      <trkpt lat="46.94032" lon="-0.82041">
        <ele>185</ele>
        <time>2021-09-29T13:00:51Z</time>
      </trkpt>
      <trkpt lat="46.93971" lon="-0.82066">
        <ele>188</ele>
        <time>2021-09-29T13:02:15Z</time>
      </trkpt>
      <trkpt lat="46.9395" lon="-0.82079">
        <ele>190</ele>
        <time>2021-09-29T13:02:46Z</time>
      </trkpt>
      <trkpt lat="46.9387" lon="-0.82186">
        <ele>197</ele>
        <time>2021-09-29T13:05:10Z</time>
      </trkpt>
      <trkpt lat="46.93796" lon="-0.8231">
        <ele>206</ele>
        <time>2021-09-29T13:07:40Z</time>
      </trkpt>
      <trkpt lat="46.93729" lon="-0.8248">
        <ele>214</ele>
        <time>2021-09-29T13:10:39Z</time>
      </trkpt>
      <trkpt lat="46.937" lon="-0.82532">
        <ele>216</ele>
        <time>2021-09-29T13:11:40Z</time>
      </trkpt>
      <trkpt lat="46.93631" lon="-0.82646">
        <ele>217</ele>
        <time>2021-09-29T13:13:59Z</time>
      </trkpt>
      <trkpt lat="46.93657" lon="-0.82708">
        <ele>217</ele>
        <time>2021-09-29T13:15:05Z</time>
      </trkpt>
      <trkpt lat="46.93662" lon="-0.82735">
        <ele>217</ele>
        <time>2021-09-29T13:15:31Z</time>
      </trkpt>
      <trkpt lat="46.93675" lon="-0.82759">
        <ele>217</ele>
        <time>2021-09-29T13:15:59Z</time>
      </trkpt>
      <trkpt lat="46.93738" lon="-0.82826">
        <ele>217</ele>
        <time>2021-09-29T13:17:43Z</time>
      </trkpt>
      <trkpt lat="46.93779" lon="-0.82914">
        <ele>217</ele>
        <time>2021-09-29T13:19:20Z</time>
      </trkpt>
      <trkpt lat="46.93825" lon="-0.83026">
        <ele>214</ele>
        <time>2021-09-29T13:21:19Z</time>
      </trkpt>
      <trkpt lat="46.93883" lon="-0.82978">
        <ele>211</ele>
        <time>2021-09-29T13:22:48Z</time>
      </trkpt>
      <trkpt lat="46.93947" lon="-0.82987">
        <ele>206</ele>
        <time>2021-09-29T13:24:14Z</time>
      </trkpt>
      <trkpt lat="46.94069" lon="-0.83038">
        <ele>196</ele>
        <time>2021-09-29T13:27:03Z</time>
      </trkpt>
      <trkpt lat="46.94075" lon="-0.83139">
        <ele>193</ele>
        <time>2021-09-29T13:28:35Z</time>
      </trkpt>
      <trkpt lat="46.94104" lon="-0.8322">
        <ele>192</ele>
        <time>2021-09-29T13:29:59Z</time>
      </trkpt>
      <trkpt lat="46.94139" lon="-0.83311">
        <ele>192</ele>
        <time>2021-09-29T13:31:34Z</time>
      </trkpt>
      <trkpt lat="46.94171" lon="-0.83363">
        <ele>189</ele>
        <time>2021-09-29T13:32:37Z</time>
      </trkpt>
      <trkpt lat="46.94262" lon="-0.83421">
        <ele>175</ele>
        <time>2021-09-29T13:34:50Z</time>
      </trkpt>
      <trkpt lat="46.94293" lon="-0.83466">
        <ele>169</ele>
        <time>2021-09-29T13:35:48Z</time>
      </trkpt>
      <trkpt lat="46.94349" lon="-0.83606">
        <ele>162</ele>
        <time>2021-09-29T13:38:16Z</time>
      </trkpt>
      <trkpt lat="46.94392" lon="-0.83645">
        <ele>163</ele>
        <time>2021-09-29T13:39:23Z</time>
      </trkpt>
      <trkpt lat="46.94345" lon="-0.83694">
        <ele>166</ele>
        <time>2021-09-29T13:40:40Z</time>
      </trkpt>
      <trkpt lat="46.94322" lon="-0.83742">
        <ele>168</ele>
        <time>2021-09-29T13:41:34Z</time>
      </trkpt>
      <trkpt lat="46.94314" lon="-0.83785">
        <ele>169</ele>
        <time>2021-09-29T13:42:14Z</time>
      </trkpt>
      <trkpt lat="46.94334" lon="-0.83858">
        <ele>167</ele>
        <time>2021-09-29T13:43:26Z</time>
      </trkpt>
      <trkpt lat="46.94384" lon="-0.83952">
        <ele>171</ele>
        <time>2021-09-29T13:45:15Z</time>
      </trkpt>
      <trkpt lat="46.94417" lon="-0.83988">
        <ele>172</ele>
        <time>2021-09-29T13:46:10Z</time>
      </trkpt>
      <trkpt lat="46.94467" lon="-0.83961">
        <ele>173</ele>
        <time>2021-09-29T13:47:21Z</time>
      </trkpt>
      <trkpt lat="46.94459" lon="-0.83927">
        <ele>172</ele>
        <time>2021-09-29T13:47:53Z</time>
      </trkpt>
      <trkpt lat="46.94464" lon="-0.83891">
        <ele>172</ele>
        <time>2021-09-29T13:48:27Z</time>
      </trkpt>
      <trkpt lat="46.94461" lon="-0.83874">
        <ele>172</ele>
        <time>2021-09-29T13:48:43Z</time>
      </trkpt>
      <trkpt lat="46.94471" lon="-0.83843">
        <ele>172</ele>
        <time>2021-09-29T13:49:14Z</time>
      </trkpt>
      <trkpt lat="46.94502" lon="-0.83788">
        <ele>172</ele>
        <time>2021-09-29T13:50:19Z</time>
      </trkpt>
      <trkpt lat="46.94589" lon="-0.83761">
        <ele>172</ele>
        <time>2021-09-29T13:52:18Z</time>
      </trkpt>
      <trkpt lat="46.94599" lon="-0.83727">
        <ele>170</ele>
        <time>2021-09-29T13:52:52Z</time>
      </trkpt>
    </trkseg>
  </trk>
</gpx>